Time;durP1;ratioP1;P1;durP2;ratioP2;P2;SDS_P1;SDS_P2;PMS_P1;PMS_P2;Temp;Humidity;BMP_temperature;BMP_pressure;BME280_temperature;BME280_humidity;BME280_pressure;Samples;Min_cycle;Max_cycle;Signal;HPM_P1;HPM_P2
2021/10/26 00:01:24;;;;;;;17.33;10.10;;;;;;;3.46;100.00;101003.03;20990939;28;20624;-70
2021/10/26 00:11:30;;;;;;;12.70;9.47;;;;;;;3.42;100.00;100996.97;20989263;28;20222;-70
2021/10/26 00:21:34;;;;;;;13.23;8.47;;;;;;;3.40;100.00;100997.91;20989540;28;20221;-71
2021/10/26 00:31:39;;;;;;;11.60;8.07;;;;;;;3.22;100.00;100997.44;20988789;28;20224;-72
2021/10/26 00:41:42;;;;;;;11.20;7.63;;;;;;;3.06;100.00;100993.41;20987932;28;20230;-71
2021/10/26 00:51:47;;;;;;;11.83;7.80;;;;;;;2.93;100.00;101002.50;20987461;28;20685;-71
2021/10/26 01:01:51;;;;;;;10.00;7.03;;;;;;;2.81;100.00;100990.47;20987639;28;20243;-72
2021/10/26 01:12:01;;;;;;;10.40;7.40;;;;;;;2.67;100.00;100983.75;21018650;28;20306;-71
2021/10/26 01:22:08;;;;;;;11.03;7.33;;;;;;;2.48;100.00;100978.88;20986241;28;20219;-71
2021/10/26 01:32:14;;;;;;;11.03;7.10;;;;;;;2.34;100.00;100975.66;21001432;28;20873;-71
2021/10/26 01:42:22;;;;;;;10.13;7.40;;;;;;;2.31;100.00;100972.22;21001472;28;20235;-71
2021/10/26 01:52:29;;;;;;;12.57;7.53;;;;;;;2.28;100.00;100977.56;21001386;28;20637;-70
2021/10/26 02:02:38;;;;;;;10.63;7.20;;;;;;;2.12;100.00;100943.63;20999076;28;20215;-71
2021/10/26 02:12:44;;;;;;;12.63;8.13;;;;;;;2.37;100.00;100975.59;20989402;28;20227;-70
2021/10/26 02:22:49;;;;;;;11.23;6.80;;;;;;;2.32;100.00;100971.31;20989183;28;20223;-72
2021/10/26 02:32:53;;;;;;;10.23;6.83;;;;;;;2.24;100.00;100967.97;20988075;28;20219;-71
2021/10/26 02:42:59;;;;;;;10.93;7.13;;;;;;;2.18;100.00;100963.69;20994645;28;20273;-70
2021/10/26 02:53:03;;;;;;;10.17;6.53;;;;;;;2.10;100.00;100970.88;20996600;28;20230;-70
2021/10/26 03:03:08;;;;;;;9.00;6.03;;;;;;;2.07;100.00;100966.53;20994914;28;20692;-71
2021/10/26 03:13:12;;;;;;;7.60;5.80;;;;;;;1.98;100.00;100956.19;20994940;28;20292;-71
2021/10/26 03:23:17;;;;;;;7.93;5.57;;;;;;;1.94;100.00;100964.16;20993102;28;20237;-71
2021/10/26 03:33:21;;;;;;;7.13;5.83;;;;;;;1.83;100.00;100958.22;21009020;28;20257;-71
2021/10/26 03:43:32;;;;;;;8.27;6.50;;;;;;;1.77;100.00;100967.97;20992750;28;20253;-71
2021/10/26 03:53:36;;;;;;;7.30;5.70;;;;;;;1.78;100.00;100974.97;20989406;28;20235;-72
2021/10/26 04:03:42;;;;;;;6.63;5.43;;;;;;;1.71;100.00;100944.41;20997527;28;20269;-71
2021/10/26 04:13:47;;;;;;;12.83;7.80;;;;;;;1.85;100.00;100959.06;20972026;28;20273;-71
2021/10/26 04:23:52;;;;;;;9.57;6.73;;;;;;;1.72;100.00;100938.25;20998875;28;20225;-69
2021/10/26 04:33:56;;;;;;;8.80;6.97;;;;;;;1.76;100.00;100933.81;20988984;28;20755;-70
2021/10/26 04:44:02;;;;;;;11.50;7.03;;;;;;;1.73;100.00;100924.19;20986288;28;20310;-70
2021/10/26 04:54:07;;;;;;;9.33;6.63;;;;;;;1.74;100.00;100925.94;21044820;28;20309;-70
2021/10/26 05:04:12;;;;;;;10.17;7.30;;;;;;;1.74;100.00;100922.44;21169394;27;20843;-72
2021/10/26 05:14:20;;;;;;;9.63;7.37;;;;;;;1.74;100.00;100925.06;21112821;27;20244;-71
2021/10/26 05:24:45;;;;;;;10.53;7.10;;;;;;;1.69;100.00;100934.81;21035953;28;20234;-73
2021/10/26 05:35:09;;;;;;;8.27;6.10;;;;;;;1.69;100.00;100948.81;21051613;28;20230;-71
2021/10/26 05:45:16;;;;;;;8.57;6.93;;;;;;;1.82;100.00;100944.19;21066078;28;20740;-73
2021/10/26 05:55:20;;;;;;;10.03;7.10;;;;;;;2.14;100.00;100951.50;21068023;28;20230;-71
2021/10/26 06:05:25;;;;;;;8.33;6.03;;;;;;;2.45;100.00;100962.25;21068555;28;20728;-74
2021/10/26 06:15:29;;;;;;;13.90;6.67;;;;;;;2.98;100.00;100961.09;21075399;28;20296;-74
2021/10/26 06:25:35;;;;;;;8.63;6.03;;;;;;;3.75;100.00;100974.13;21064648;28;20306;-73
2021/10/26 06:36:14;;;;;;;8.77;7.17;;;;;;;4.46;100.00;100984.53;21070424;28;20298;-74
2021/10/26 06:46:20;;;;;;;13.60;8.00;;;;;;;5.08;100.00;100997.66;21080980;28;20230;-70
2021/10/26 06:56:42;;;;;;;12.00;8.27;;;;;;;5.61;100.00;100984.50;21079515;28;20226;-73
2021/10/26 07:07:17;;;;;;;9.23;6.77;;;;;;;6.29;100.00;100983.91;20975853;28;20235;-73
2021/10/26 07:17:28;;;;;;;7.67;6.30;;;;;;;6.88;100.00;100988.81;21055651;28;20283;-73
2021/10/26 07:27:33;;;;;;;6.60;5.90;;;;;;;7.63;100.00;100997.28;21076738;28;20257;-73
2021/10/26 07:37:41;;;;;;;6.73;6.10;;;;;;;8.57;100.00;100991.41;21075957;28;20232;-71
2021/10/26 07:47:51;;;;;;;5.53;5.03;;;;;;;9.32;100.00;100996.75;21041018;28;20670;-72
2021/10/26 07:57:55;;;;;;;5.73;5.03;;;;;;;10.09;100.00;100989.31;21075315;28;20337;-72
2021/10/26 08:08:02;;;;;;;6.93;6.23;;;;;;;10.92;100.00;100992.94;21074510;28;20261;-72
2021/10/26 08:18:06;;;;;;;9.17;7.00;;;;;;;11.47;100.00;100982.72;21073632;28;20226;-73
2021/10/26 08:28:14;;;;;;;7.73;6.93;;;;;;;11.62;100.00;100981.81;21072041;28;20281;-73
2021/10/26 08:38:18;;;;;;;6.67;6.03;;;;;;;11.66;100.00;100977.16;21070757;28;20712;-72
2021/10/26 08:48:41;;;;;;;8.47;7.07;;;;;;;11.61;100.00;100977.41;21071453;28;20250;-72
2021/10/26 08:58:56;;;;;;;9.90;6.97;;;;;;;11.83;100.00;100972.56;21070354;28;20234;-72
2021/10/26 09:09:23;;;;;;;7.43;6.60;;;;;;;11.90;100.00;100965.91;21070065;28;20243;-72
2021/10/26 09:19:54;;;;;;;6.73;6.10;;;;;;;12.22;100.00;100976.47;21069704;28;20236;-72
2021/10/26 09:30:10;;;;;;;6.77;6.17;;;;;;;12.26;100.00;100978.03;21001364;28;20236;-72
2021/10/26 09:40:15;;;;;;;8.87;6.90;;;;;;;12.54;100.00;100988.78;20985823;28;20233;-72
2021/10/26 09:50:20;;;;;;;7.10;6.43;;;;;;;12.72;100.00;100984.09;20996377;28;20710;-72
2021/10/26 10:00:27;;;;;;;9.23;7.27;;;;;;;12.94;100.00;100975.53;20982826;28;20228;-72
2021/10/26 10:10:39;;;;;;;8.40;7.47;;;;;;;12.97;100.00;100954.78;20970386;28;20284;-73
2021/10/26 10:20:43;;;;;;;16.70;9.07;;;;;;;13.25;100.00;100950.38;21005417;28;20935;-72
2021/10/26 10:30:50;;;;;;;9.07;6.40;;;;;;;13.36;100.00;100938.94;20997853;28;20600;-72
2021/10/26 10:41:22;;;;;;;7.17;6.00;;;;;;;13.68;92.54;100957.28;20997444;28;20641;-72
2021/10/26 10:51:27;;;;;;;7.80;6.20;;;;;;;13.60;100.00;100942.66;20994842;28;20241;-72
2021/10/26 11:01:33;;;;;;;7.67;5.83;;;;;;;13.58;100.00;100915.09;20993834;28;20304;-72
2021/10/26 11:12:09;;;;;;;8.57;7.23;;;;;;;13.52;94.51;100923.56;20995672;28;20601;-72
2021/10/26 11:22:49;;;;;;;27.10;12.70;;;;;;;13.55;98.00;100908.09;21006225;28;20230;-72
2021/10/26 11:43:25;;;;;;;10.97;6.97;;;;;;;13.68;100.00;100897.41;21239345;27;20895;-71
2021/10/26 11:53:31;;;;;;;11.13;8.23;;;;;;;13.91;100.00;100894.00;21227808;27;20705;-73
2021/10/26 12:03:36;;;;;;;15.17;13.60;;;;;;;14.37;100.00;100872.00;21227152;27;20255;-74
2021/10/26 12:13:40;;;;;;;8.00;6.60;;;;;;;14.66;100.00;100886.91;21226252;27;20273;-73
2021/10/26 12:23:54;;;;;;;7.60;6.77;;;;;;;14.92;95.08;100859.97;21225414;27;20308;-73
2021/10/26 12:34:01;;;;;;;10.23;8.13;;;;;;;14.99;100.00;100875.53;21224554;27;20628;-73
2021/10/26 12:44:12;;;;;;;7.70;6.60;;;;;;;15.16;100.00;100860.84;21223617;27;20312;-73
2021/10/26 12:54:19;;;;;;;8.73;6.40;;;;;;;15.17;100.00;100853.63;21168975;27;20221;-73
2021/10/26 13:04:25;;;;;;;6.93;6.23;;;;;;;15.06;99.36;100857.13;21165673;27;20260;-73
2021/10/26 13:14:36;;;;;;;8.70;6.67;;;;;;;15.10;97.88;100856.78;21165079;27;20694;-73
2021/10/26 13:24:42;;;;;;;6.93;6.23;;;;;;;14.73;100.00;100839.81;21164119;27;20313;-73
2021/10/26 13:34:47;;;;;;;7.20;6.17;;;;;;;14.27;100.00;100850.31;21163244;27;20282;-73
2021/10/26 13:44:53;;;;;;;7.30;6.60;;;;;;;13.99;100.00;100846.06;21161030;27;20228;-73
2021/10/26 13:54:56;;;;;;;22.63;9.43;;;;;;;13.85;100.00;100851.53;21160819;28;20717;-72
2021/10/26 14:05:01;;;;;;;8.53;6.80;;;;;;;13.65;100.00;100860.06;21159580;27;20314;-72
2021/10/26 14:15:07;;;;;;;10.50;8.90;;;;;;;13.43;100.00;100849.06;21137187;27;20329;-72
2021/10/26 14:25:15;;;;;;;8.27;7.47;;;;;;;13.23;100.00;100859.34;21194074;27;20226;-72
2021/10/26 14:35:21;;;;;;;9.67;8.13;;;;;;;12.80;100.00;100868.44;21223104;27;20812;-72
2021/10/26 14:56:10;;;;;;;9.80;7.93;;;;;;;11.68;100.00;100863.84;21227836;27;20264;-77
2021/10/26 15:06:15;;;;;;;8.80;7.90;;;;;;;11.38;100.00;100863.81;21207239;27;20307;-74
2021/10/26 15:16:18;;;;;;;11.70;8.83;;;;;;;11.05;100.00;100869.34;21225857;27;20320;-76
2021/10/26 15:33:11;;;;;;;11.20;10.00;;;;;;;10.74;100.00;100882.72;21181232;27;20698;-74
2021/10/26 15:36:53;;;;;;;10.63;8.90;;;;;;;10.42;100.00;100874.66;21153943;28;20282;-74
2021/10/26 15:46:58;;;;;;;21.03;13.70;;;;;;;10.11;100.00;100879.91;21206952;28;20240;-73
2021/10/26 15:57:02;;;;;;;34.03;21.30;;;;;;;9.96;100.00;100894.03;21222544;28;20259;-71
2021/10/26 16:07:07;;;;;;;31.83;22.00;;;;;;;9.89;100.00;100879.31;21026218;28;20878;-74
2021/10/26 16:17:12;;;;;;;14.13;12.60;;;;;;;9.88;100.00;100873.13;21025007;28;20226;-70
2021/10/26 16:27:17;;;;;;;19.03;14.77;;;;;;;9.97;100.00;100893.09;21041781;28;20294;-71
2021/10/26 16:37:26;;;;;;;18.80;15.57;;;;;;;10.15;100.00;100902.78;21052110;28;20244;-74
2021/10/26 16:47:31;;;;;;;18.00;15.60;;;;;;;10.30;100.00;100894.00;21070626;28;21055;-73
2021/10/26 16:57:35;;;;;;;17.03;14.43;;;;;;;10.38;100.00;100893.59;21047731;28;20230;-73
2021/10/26 17:07:41;;;;;;;16.20;13.87;;;;;;;10.51;100.00;100904.44;21068499;28;20226;-72
2021/10/26 17:17:45;;;;;;;17.97;14.43;;;;;;;10.59;100.00;100907.56;21010464;28;21164;-72
2021/10/26 17:27:51;;;;;;;16.83;13.73;;;;;;;10.59;100.00;100908.44;21067311;28;20337;-71
2021/10/26 17:37:56;;;;;;;20.77;16.23;;;;;;;10.58;100.00;100911.19;21048694;28;20241;-72
2021/10/26 17:48:03;;;;;;;18.20;15.47;;;;;;;10.61;100.00;100916.38;21064614;28;20229;-69
2021/10/26 17:58:07;;;;;;;15.47;13.47;;;;;;;10.69;100.00;100919.47;21075406;28;20242;-66
2021/10/26 18:08:13;;;;;;;15.63;14.03;;;;;;;10.89;100.00;100926.34;21074902;28;20251;-67
2021/10/26 18:18:17;;;;;;;14.97;13.37;;;;;;;11.08;100.00;100935.94;21065928;28;20237;-68
2021/10/26 18:28:22;;;;;;;20.23;15.90;;;;;;;11.18;100.00;100934.47;21050287;28;20257;-68
2021/10/26 18:38:28;;;;;;;18.00;16.10;;;;;;;11.21;100.00;100932.56;21050499;28;20734;-67
2021/10/26 18:48:53;;;;;;;19.97;15.27;;;;;;;11.27;100.00;100942.91;21056465;28;20237;-68
2021/10/26 18:58:57;;;;;;;20.07;15.43;;;;;;;11.28;100.00;100944.63;21040217;28;20571;-67
2021/10/26 19:09:03;;;;;;;20.13;16.40;;;;;;;11.17;100.00;100959.44;21058522;28;20230;-67
2021/10/26 19:19:07;;;;;;;18.87;16.70;;;;;;;11.02;100.00;100976.34;21035997;28;20715;-66
2021/10/26 19:29:13;;;;;;;21.90;18.70;;;;;;;10.63;100.00;100978.50;21057437;28;20237;-66
2021/10/26 19:39:17;;;;;;;19.57;17.50;;;;;;;10.46;100.00;100966.09;21041873;28;20248;-66
2021/10/26 19:49:22;;;;;;;18.90;16.87;;;;;;;10.46;100.00;100984.75;21062770;28;20252;-67
2021/10/26 19:59:26;;;;;;;19.33;15.27;;;;;;;10.43;100.00;100993.78;21076769;28;20235;-72
2021/10/26 20:09:32;;;;;;;22.83;18.17;;;;;;;10.34;100.00;101010.28;21085768;28;20233;-72
2021/10/26 20:19:40;;;;;;;19.27;17.37;;;;;;;9.99;100.00;101009.41;21083737;28;20234;-65
2021/10/26 20:29:49;;;;;;;20.00;17.90;;;;;;;9.81;100.00;101010.31;21084287;28;20222;-66
2021/10/26 20:39:52;;;;;;;18.50;16.43;;;;;;;9.80;100.00;101018.38;21083092;28;20331;-67
2021/10/26 20:50:00;;;;;;;19.73;17.67;;;;;;;9.71;100.00;101009.06;21082394;28;20222;-66
2021/10/26 21:00:06;;;;;;;21.67;18.23;;;;;;;9.51;100.00;101019.84;21081481;28;20617;-66
2021/10/26 21:10:14;;;;;;;20.83;18.60;;;;;;;9.53;100.00;101021.50;21080529;28;20600;-67
2021/10/26 21:20:18;;;;;;;20.17;17.27;;;;;;;9.53;100.00;101021.50;21079816;28;20770;-69
2021/10/26 21:30:27;;;;;;;20.30;18.03;;;;;;;9.59;100.00;101026.50;21078106;28;20699;-66
2021/10/26 21:40:30;;;;;;;20.03;17.93;;;;;;;9.70;100.00;101023.31;21078041;28;20313;-67
2021/10/26 21:50:35;;;;;;;20.63;18.43;;;;;;;9.75;100.00;101014.16;21077431;28;20237;-68
2021/10/26 22:00:39;;;;;;;22.00;18.73;;;;;;;9.86;100.00;101020.75;21076964;28;20230;-66
2021/10/26 22:10:44;;;;;;;20.47;18.30;;;;;;;9.92;100.00;101021.31;21075867;28;20226;-67
2021/10/26 22:20:49;;;;;;;19.00;17.10;;;;;;;9.90;100.00;101030.34;21073879;28;20311;-66
2021/10/26 22:30:54;;;;;;;18.73;16.87;;;;;;;9.53;100.00;101048.16;21074284;28;20703;-66
2021/10/26 22:40:57;;;;;;;17.90;16.00;;;;;;;9.35;100.00;101044.53;21073475;28;20299;-66
2021/10/26 22:51:02;;;;;;;18.50;16.50;;;;;;;9.03;100.00;101056.72;21072936;28;20234;-66
2021/10/26 23:01:05;;;;;;;19.80;17.63;;;;;;;9.22;100.00;101061.19;21072181;28;20699;-66
2021/10/26 23:11:11;;;;;;;20.63;18.40;;;;;;;9.25;100.00;101059.25;21071725;28;20737;-67
2021/10/26 23:21:14;;;;;;;18.70;16.80;;;;;;;9.08;100.00;101071.59;21071172;28;20257;-67
2021/10/26 23:31:19;;;;;;;20.43;16.83;;;;;;;8.98;100.00;101061.38;21070375;28;20222;-67
2021/10/26 23:41:23;;;;;;;20.60;18.30;;;;;;;8.52;100.00;101059.06;21069839;28;20299;-67
2021/10/26 23:51:28;;;;;;;19.60;17.50;;;;;;;8.19;100.00;101064.88;21069765;28;20691;-68
